Millard Airport

About
Name: Millard Airport
Identifier:  MIQ/KMLE
Local Time:  22. Aug 23:47 CDT
Location
Flights per Day
1 flights
Distance: 347km (216mi)
Punctuality
87% (0 flights per day delayed)
Delay Average: 14 minutes
Current Weather
 22 C (Humidity: 68%)
  3kt (5km/h / 3mph) from 110°
  16km (10 mi.)
 
 METAR KMLE 230415Z AUTO 11003KT 10SM CLR 22/16 A3006 RMK AO2 T02210157

Current Flights

Departures
Number Departure To Airline
Arrivals
Number Arrival From Airline

Current Delays

Departures
N/A
Arrivals
N/A

Destinations

Top Destinations
Airport Flights
per week
Seats
per week
  Norfolk (OFK) 3 - 0 0
  Omaha (OMA) 2 - 0 0
  Colorado Springs (COS) 2 - 0 0
  Lincoln (LNK) 1 - 0 0
  Des Moines (DSM) 1 - 0 0
  Kansas City (MKC) 1 - 0 0
  Fremont (FET) 1 - 0 0
  Grand Island (GRI) 1 - 0 0
  Valentine (VTN) 1 - 0 0
  Rapid City (RAP) 1 - 0 0

Airlines & Planes

Top Airlines
Airline Flights
per Day
Seats
per Day
Nordwind Airlines 1 -
  National Airlines 0 -
  Novair 0 -
  Flybe Nordic 0 -
Jet Charter Inc ( Franklin Lakes Nj ) 0 -
  Nolinor Aviation 0 -
Top Plane Types
Model Flights Seats
Piper PA28R-201T Turbo Arrow IV 0.7/day - 0
Cessna C172 0.6/day - 0
Pilatus PC-12 0.4/day - 0
Cirrus SR22 0.4/day - 0
Piper PA28-181 0.3/day - 0
Beech G36 Bonanza 0.2/day - 0
Piper PA-32R-301T Saratoga II 0.2/day - 0